createdAt,value
2018-06-08T04:53:29.578Z,99.90
2018-06-08T04:55:56.590Z,99.90
2018-06-08T04:58:23.649Z,99.90
2018-06-08T05:00:50.689Z,99.90
2018-06-08T05:03:17.753Z,99.90
2018-06-08T05:08:11.943Z,99.90
2018-06-08T05:10:38.975Z,99.90
2018-06-08T05:13:06.045Z,99.90
2018-06-08T05:15:33.138Z,99.90
2018-06-08T05:18:00.155Z,99.90
2018-06-08T05:20:27.206Z,99.90
2018-06-08T05:22:54.223Z,99.90
2018-06-08T05:25:21.259Z,99.90
2018-06-08T05:27:48.409Z,99.90
2018-06-08T05:30:17.934Z,99.90
2018-06-08T05:32:45.005Z,99.90
2018-06-08T05:35:12.042Z,99.90
2018-06-08T05:37:39.063Z,99.90
2018-06-08T05:40:06.115Z,99.90
2018-06-08T05:42:33.225Z,99.90
2018-06-08T05:45:00.254Z,99.90
2018-06-08T05:47:27.266Z,99.90
2018-06-08T05:49:54.320Z,99.50
2018-06-08T05:52:21.343Z,98.50
2018-06-08T05:57:15.527Z,99.30
2018-06-08T05:59:42.594Z,98.50
2018-06-08T06:02:09.646Z,98.60
2018-06-08T06:04:36.655Z,96.40
2018-06-08T06:07:03.750Z,94.60
2018-06-08T06:09:30.800Z,94.50
2018-06-08T06:11:57.881Z,95.80
2018-06-08T06:14:24.966Z,97.50
2018-06-08T06:16:52.002Z,96.60
2018-06-08T06:19:19.170Z,97.00
2018-06-08T06:21:46.274Z,95.20
2018-06-08T06:24:13.408Z,94.20
2018-06-08T06:26:40.467Z,93.20
2018-06-08T06:29:07.562Z,92.90
2018-06-08T06:31:34.627Z,93.30
2018-06-08T06:34:01.713Z,91.50
2018-06-08T06:36:28.740Z,87.80
2018-06-08T06:38:55.778Z,91.80
2018-06-08T06:41:22.862Z,91.80
2018-06-08T06:43:49.887Z,92.70
2018-06-08T06:46:16.988Z,90.60
2018-06-08T06:48:44.074Z,86.40
2018-06-08T06:51:11.152Z,85.30
2018-06-08T06:56:05.351Z,91.40
2018-06-08T06:58:32.448Z,92.80
2018-06-08T07:00:59.515Z,88.60
2018-06-08T07:03:26.607Z,86.90
2018-06-08T07:05:53.738Z,88.70
2018-06-08T07:08:20.811Z,86.60
2018-06-08T07:10:47.974Z,88.40
2018-06-08T07:13:15.091Z,85.30
2018-06-08T07:15:42.168Z,89.70
2018-06-08T07:18:09.212Z,83.30
2018-06-08T07:20:36.306Z,83.40
2018-06-08T07:23:03.418Z,78.40
2018-06-08T07:25:30.482Z,83.50
2018-06-08T07:27:57.590Z,77.70
2018-06-08T07:30:24.674Z,78.20
2018-06-08T07:32:51.735Z,78.00
2018-06-08T07:35:18.817Z,77.70
2018-06-08T07:37:45.968Z,74.80
2018-06-08T07:40:13.130Z,74.20
2018-06-08T07:42:40.235Z,78.90
2018-06-08T07:45:07.347Z,77.40
2018-06-08T07:47:34.431Z,75.10
2018-06-08T07:50:01.473Z,76.40
2018-06-08T07:52:28.527Z,75.30
2018-06-08T07:54:55.708Z,74.80
2018-06-08T07:57:22.830Z,74.40
2018-06-08T07:59:49.887Z,73.20
2018-06-08T08:02:16.979Z,74.30
2018-06-08T08:04:44.088Z,73.60
2018-06-08T08:07:11.138Z,74.20
2018-06-08T08:09:38.194Z,76.30
2018-06-08T08:12:05.309Z,70.80
2018-06-08T08:14:32.383Z,73.20
2018-06-08T08:16:59.440Z,71.50
2018-06-08T08:21:53.618Z,70.80
2018-06-08T08:24:20.694Z,72.00
2018-06-08T08:26:47.761Z,72.70
2018-06-08T08:29:14.868Z,74.10
2018-06-08T08:31:41.915Z,71.70
2018-06-08T08:36:36.236Z,69.40
2018-06-08T08:39:06.636Z,73.10
2018-06-08T08:41:33.703Z,70.40
2018-06-08T08:44:00.722Z,70.80
2018-06-08T08:46:27.790Z,69.90
2018-06-08T08:48:54.845Z,71.50
2018-06-08T08:51:21.898Z,69.70
2018-06-08T08:53:49.001Z,71.10
2018-06-08T08:56:16.084Z,69.30
2018-06-08T08:58:43.232Z,67.80
2018-06-08T09:01:10.301Z,66.50
2018-06-08T09:03:37.373Z,69.20
2018-06-08T09:06:04.530Z,66.70
2018-06-08T09:08:31.623Z,66.30
2018-06-08T09:10:58.723Z,61.10
2018-06-08T09:13:25.790Z,64.10
2018-06-08T09:15:52.910Z,64.40
2018-06-08T09:18:20.039Z,61.80
2018-06-08T09:20:47.237Z,65.00
2018-06-08T09:25:41.525Z,60.60
2018-06-08T09:28:08.635Z,59.60
2018-06-08T09:30:35.696Z,59.10
2018-06-08T09:33:02.826Z,59.70
2018-06-08T19:53:27.642Z,56.70
2018-06-08T19:55:54.723Z,60.00
2018-06-08T19:58:21.768Z,58.00
2018-06-08T20:00:48.810Z,57.10
2018-06-08T20:03:15.894Z,58.80
2018-06-08T20:05:42.910Z,60.20
2018-06-08T20:08:09.962Z,61.30
2018-06-08T20:10:36.983Z,62.90
2018-06-08T20:15:31.294Z,66.90
2018-06-08T20:17:58.314Z,74.00
2018-06-08T20:20:25.357Z,72.40
2018-06-08T20:22:52.462Z,68.20
2018-06-08T20:25:19.526Z,75.40
2018-06-08T20:27:46.602Z,72.60
2018-06-08T20:30:13.655Z,70.30
2018-06-08T20:32:40.797Z,70.40
2018-06-08T20:35:07.858Z,72.90
2018-06-08T20:37:34.902Z,73.10
2018-06-08T20:40:01.990Z,73.50
2018-06-08T20:42:29.014Z,77.30
2018-06-08T20:44:56.065Z,78.30
2018-06-08T20:47:23.122Z,83.00
2018-06-08T20:49:50.160Z,89.50
2018-06-08T20:52:17.226Z,90.10
2018-06-08T20:54:44.359Z,89.80
2018-06-08T20:57:28.234Z,87.30
2018-06-08T20:59:55.251Z,86.70
2018-06-08T21:02:22.396Z,89.90
2018-06-08T21:04:49.310Z,91.30
2018-06-08T21:07:16.396Z,90.30
2018-06-08T21:09:43.447Z,85.40
2018-06-08T21:12:10.496Z,93.20
2018-06-08T21:14:37.586Z,93.50
2018-06-08T21:17:04.626Z,91.70
2018-06-08T21:19:31.676Z,91.40
2018-06-08T21:21:58.753Z,93.00
2018-06-08T21:24:25.778Z,92.10
2018-06-08T21:26:52.831Z,91.70
2018-06-08T21:29:19.862Z,92.40
2018-06-08T21:31:46.957Z,91.90
2018-06-08T21:34:14.031Z,93.90
2018-06-08T21:36:41.078Z,95.10
2018-06-08T21:39:08.127Z,96.10
2018-06-08T21:41:35.227Z,96.10
2018-06-08T21:44:02.241Z,96.40
2018-06-08T21:46:29.290Z,98.10
2018-06-08T21:48:56.290Z,99.70
2018-06-08T21:51:23.318Z,99.90
2018-06-08T21:53:50.378Z,99.90
2018-06-08T21:56:17.502Z,99.90
2018-06-08T21:58:44.611Z,99.90
2018-06-08T22:01:11.635Z,99.90
2018-06-08T22:03:38.683Z,99.90
2018-06-08T22:06:05.703Z,99.90
2018-06-08T22:08:32.774Z,99.90
2018-06-08T22:10:59.810Z,99.90
2018-06-08T22:13:26.859Z,99.90
2018-06-08T22:18:20.993Z,99.90
2018-06-08T22:20:48.106Z,99.90
2018-06-08T22:23:15.255Z,99.90
2018-06-08T22:25:42.277Z,99.90
2018-06-08T22:28:09.310Z,99.90
2018-06-08T22:30:36.317Z,99.90
2018-06-08T22:33:03.363Z,99.90
2018-06-08T22:35:30.490Z,99.90
2018-06-08T22:37:57.506Z,99.90
2018-06-08T22:40:24.554Z,99.90
2018-06-08T22:42:51.587Z,99.90
2018-06-08T22:45:18.624Z,99.90
2018-06-08T22:47:45.681Z,99.90
2018-06-08T22:50:12.727Z,99.90
2018-06-08T22:52:39.761Z,99.90
2018-06-08T22:55:06.763Z,99.90
2018-06-08T22:57:33.762Z,99.90
2018-06-08T23:02:27.946Z,99.90
2018-06-08T23:04:54.959Z,99.90
2018-06-08T23:07:21.994Z,99.90
2018-06-08T23:09:49.022Z,99.90
2018-06-08T23:12:16.113Z,99.90
2018-06-08T23:17:10.281Z,99.90
2018-06-08T23:19:37.326Z,99.90
2018-06-08T23:22:04.461Z,99.90
2018-06-08T23:24:31.545Z,99.90
2018-06-08T23:26:58.562Z,99.90
2018-06-08T23:29:25.578Z,99.90
2018-06-08T23:31:52.618Z,99.90
2018-06-08T23:34:19.675Z,99.90
2018-06-08T23:36:46.723Z,99.90
2018-06-08T23:39:13.786Z,99.90
2018-06-08T23:41:40.790Z,99.90
2018-06-08T23:44:07.801Z,99.90
2018-06-08T23:46:34.947Z,99.90
2018-06-08T23:49:02.023Z,99.90
2018-06-08T23:51:29.072Z,99.90
2018-06-08T23:53:56.090Z,99.90
2018-06-08T23:56:23.131Z,99.90
2018-06-08T23:58:50.137Z,99.90
